WetterOnline ( https://www.wetteronline.de )

Wetter aktuell Rehau

Aktuelles Wetter: Hof/Flughafen (568m)

6-stündlich | Neueste Meldungen
Ortszeit Temperatur Wetter
Sa, 02.03. 19:00 6.6° C wolkig
Sa, 02.03. 13:00 9.1° C wolkig
Sa, 02.03. 7:00 4.4° C leichter Regen
Sa, 02.03. 1:00 3.0° C bewölkt
Fr, 01.03. 19:00 4.9° C bedeckt
Fr, 01.03. 13:00 6.3° C bewölkt
Fr, 01.03. 7:00 3.3° C Nebel
Fr, 01.03. 1:00 4.2° C bedeckt
Ortszeit Temperatur Wetter
Sa, 02.03. 20:30 5.2° C wolkenlos
Sa, 02.03. 20:20 5.2° C wolkenlos
Sa, 02.03. 20:10 5.3° C wolkenlos
Sa, 02.03. 20:00 5.7° C wolkenlos
Sa, 02.03. 19:50 5.7° C wolkenlos
Sa, 02.03. 19:40 5.8° C fast wolkenlos
Sa, 02.03. 19:30 6.2° C wolkig
Sa, 02.03. 19:00 6.6° C wolkig
Sa, 02.03. 18:30 6.8° C wolkig
Sa, 02.03. 18:00 7.4° C leicht bewölkt
Sa, 02.03. 17:30 8.2° C wolkig
Sa, 02.03. 17:00 8.8° C leicht bewölkt
Ortszeit Relative Feuchte Sichtweite
Sa, 02.03. 19:00 83% 28 km
Sa, 02.03. 13:00 75% 30 km
Sa, 02.03. 7:00 97% 2.8 km
Sa, 02.03. 1:00 95% 6 km
Fr, 01.03. 19:00 85% 21 km
Fr, 01.03. 13:00 86% 7 km
Fr, 01.03. 7:00 100% 1.0 km
Fr, 01.03. 1:00 95% 5.0 km
Ortszeit Relative Feuchte Sichtweite
Sa, 02.03. 20:30 89% 20 km
Sa, 02.03. 20:20 89% -
Sa, 02.03. 20:10 88% -
Sa, 02.03. 20:00 86% 24 km
Sa, 02.03. 19:50 86% -
Sa, 02.03. 19:40 86% -
Sa, 02.03. 19:30 85% 30 km
Sa, 02.03. 19:00 83% 28 km
Sa, 02.03. 18:30 82% 28 km
Sa, 02.03. 18:00 80% 29 km
Sa, 02.03. 17:30 75% 35 km
Sa, 02.03. 17:00 71% 35 km
Ortszeit Niederschlagsmenge Niederschlagsart
Sa, 02.03. 19:00 0.3 l/m2 in 12 Std. -
Sa, 02.03. 13:00 0.3 l/m2 in 6 Std. Regen
Sa, 02.03. 7:00 0.8 l/m2 in 12 Std. Regen
Sa, 02.03. 1:00 0.0 l/m2 in 6 Std. -
Fr, 01.03. 19:00 0.0 l/m2 in 12 Std. -
Fr, 01.03. 13:00 0.0 l/m2 in 6 Std. -
Fr, 01.03. 7:00 0.0 l/m2 in 12 Std. -
Fr, 01.03. 1:00 0.0 l/m2 in 6 Std. -
Ortszeit Niederschlagsmenge Niederschlagsart
Sa, 02.03. 20:30 0.0 l/m2 in 30 Min -
Sa, 02.03. 20:20 keine Meldung -
Sa, 02.03. 20:10 keine Meldung -
Sa, 02.03. 20:00 0.0 l/m2 in 1 Std. -
Sa, 02.03. 19:50 keine Meldung -
Sa, 02.03. 19:40 keine Meldung -
Sa, 02.03. 19:30 0.0 l/m2 in 30 Min -
Sa, 02.03. 19:00 0.0 l/m2 in 1 Std. -
Sa, 02.03. 18:30 0.0 l/m2 in 30 Min -
Sa, 02.03. 18:00 0.0 l/m2 in 1 Std. -
Sa, 02.03. 17:30 0.0 l/m2 in 30 Min -
Sa, 02.03. 17:00 0.0 l/m2 in 1 Std. -
Ortszeit Stärke Spitze Richtung
km/h Bft. km/h Grad Sektor
Sa, 02.03. 19:00 17 3 28 110° O
Sa, 02.03. 13:00 11 2 22 130° SO
Sa, 02.03. 7:00 7 2 22 150° SO
Sa, 02.03. 1:00 7 2 14 140° SO
Fr, 01.03. 19:00 6 1 15 140° SO
Fr, 01.03. 13:00 7 2 14 160° S
Fr, 01.03. 7:00 6 1 30 180° S
Fr, 01.03. 1:00 17 3 31 140° SO
Ortszeit Stärke Spitze Richtung
km/h Bft. km/h Grad Sektor
Sa, 02.03. 20:30 7 2 14 110° O
Sa, 02.03. 20:20 7 2 - 110° O
Sa, 02.03. 20:10 7 2 - 110° O
Sa, 02.03. 20:00 9 2 28 100° O
Sa, 02.03. 19:50 9 2 - 100° O
Sa, 02.03. 19:40 9 2 - 110° O
Sa, 02.03. 19:30 11 2 28 110° O
Sa, 02.03. 19:00 17 3 28 110° O
Sa, 02.03. 18:30 11 2 24 100° O
Sa, 02.03. 18:00 15 3 26 100° O
Sa, 02.03. 17:30 13 3 22 110° O
Sa, 02.03. 17:00 15 3 26 110° O
Ortszeit Untergrenze Bedeckung Gattung
total tief tief mittel hoch
Sa, 02.03. 19:00 390 m 6/8 6/8 - - -
Sa, 02.03. 13:00 480 m 5/8 5/8 - - -
Sa, 02.03. 7:00 120 m 7/8 7/8 - - -
Sa, 02.03. 1:00 2400 m 7/8 7/8 - - -
Fr, 01.03. 19:00 4800 m 8/8 8/8 - - -
Fr, 01.03. 13:00 4200 m 7/8 6/8 - - -
Fr, 01.03. 7:00 30 m 8/8 8/8 - - -
Fr, 01.03. 1:00 120 m 8/8 8/8 - - -
Ortszeit Bedeckungsgrad in Achtel und Wolkenuntergrenze
Sa, 02.03. 20:30 keine Wolken
Sa, 02.03. 20:20 keine Wolken
Sa, 02.03. 20:10 keine Wolken
Sa, 02.03. 20:00 keine Wolken
Sa, 02.03. 19:50 keine Wolken
Sa, 02.03. 19:40 1
Sa, 02.03. 19:30 5(390m)
Sa, 02.03. 19:00 6(390m)
Sa, 02.03. 18:30 5(420m)
Sa, 02.03. 18:00 4(8100m)
Sa, 02.03. 17:30 8(8400m)
Sa, 02.03. 17:00 1(600m) 4(8100m)
Ortszeit Luftdruck NN (hPa) Tendenz (hPa in 3 Std.)
Sa, 02.03. 19:00 1007 + 0,2
Sa, 02.03. 13:00 1007 - 0,1
Sa, 02.03. 7:00 1007 + 0,6
Sa, 02.03. 1:00 1007 - 0,7
Fr, 01.03. 19:00 1008 + 0,1
Fr, 01.03. 13:00 1008 - 0,1
Fr, 01.03. 7:00 1009 + 1,1
Fr, 01.03. 1:00 1009 - 1,2
Ortszeit Luftdruck NN (hPa) Tendenz (hPa in 3 Std.)
Sa, 02.03. 20:30 1007 0,0
Sa, 02.03. 20:20 1007 keine Meldung
Sa, 02.03. 20:10 1007 keine Meldung
Sa, 02.03. 20:00 1007 + 0,2
Sa, 02.03. 19:50 1007 keine Meldung
Sa, 02.03. 19:40 1007 keine Meldung
Sa, 02.03. 19:30 1007 + 0,4
Sa, 02.03. 19:00 1007 + 0,2
Sa, 02.03. 18:30 1006 - 0,1
Sa, 02.03. 18:00 1006 - 0,4
Sa, 02.03. 17:30 1006 - 0,5
Sa, 02.03. 17:00 1006 - 0,7
Ortszeit Schneehöhe (cm)
Sa, 02.03. 19:00 0
Sa, 02.03. 13:00 0
Sa, 02.03. 7:00 0
Sa, 02.03. 1:00 0
Fr, 01.03. 19:00 0
Fr, 01.03. 13:00 0
Fr, 01.03. 7:00 0
Fr, 01.03. 1:00 0
Ortszeit Schneehöhe (cm)
Sa, 02.03. 20:30 0
Sa, 02.03. 20:20 0
Sa, 02.03. 20:10 -
Sa, 02.03. 20:00 0
Sa, 02.03. 19:50 0
Sa, 02.03. 19:40 -
Sa, 02.03. 19:30 0
Sa, 02.03. 19:00 0
Sa, 02.03. 18:30 0
Sa, 02.03. 18:00 0
Sa, 02.03. 17:30 0
Sa, 02.03. 17:00 0
Link zu dieser Seite / Seite empfehlen

Das Wetter in ...